Flight Track Log - Related Links

Times and Time Zones

All times are in EDT time to prevent confusion due to time zone crossing. See the SKW5564 flight status page for this flight to view local times or setup timezone preferences in your user account.

Time Position Orientation Groundspeed Altitude Reporting Facility
EDT Latitude Longitude Course Direction KTS MPH feet Rate Location/Type
Sun 10:25:53 PM 29.9958 -95.3708 337° Northwest 173 199 800  Level Houston Center
Sun 10:27:11 PM 30.0631 -95.4036 337° Northwest 218 251 3,200 1,747 Climbing Houston Center
Sun 10:27:12 PM 30.0639 -95.4036 360° North 226 260 3,100 1,279 Descending Houston Center
Sun 10:28:12 PM 30.1339 -95.4253 345° North 257 296 4,500 1,823 Climbing Houston Center
Sun 10:28:31 PM 30.1569 -95.4358 338° Northwest 263 303 5,500 2,459 Climbing Houston Center
Sun 10:29:13 PM 30.2008 -95.4625 332° Northwest 269 310 7,000 2,214 Climbing Houston Center
Sun 10:30:14 PM 30.2711 -95.5028 334° Northwest 279 321 9,300 2,164 Climbing Houston Center
Sun 10:31:15 PM 30.3461 -95.5447 334° Northwest 295 339 11,400 1,721 Climbing Houston Center
Sun 10:32:16 PM 30.4275 -95.5908 334° Northwest 319 367 12,800 1,279 Climbing Houston Center
Sun 10:33:17 PM 30.5164 -95.6406 334° Northwest 349 402 14,000 1,426 Climbing Houston Center
Sun 10:34:18 PM 30.6078 -95.6900 335° Northwest 363 418 15,700 1,770 Climbing Houston Center
Sun 10:35:19 PM 30.7119 -95.7447 336° Northwest 363 418 17,600 1,475 Climbing Houston Center
Sun 10:36:20 PM 30.8053 -95.7947 335° Northwest 368 423 18,700 1,180 Climbing Houston Center
Sun 10:37:21 PM 30.9006 -95.8469 335° Northwest 375 432 20,000 1,240 Climbing Houston Center
Sun 10:38:21 PM 30.9989 -95.8983 336° Northwest 380 437 21,200 1,190 Climbing Houston Center
Sun 10:39:22 PM 31.0953 -95.9503 335° Northwest 380 437 22,400 1,082 Climbing Houston Center
Sun 10:40:23 PM 31.2014 -95.9844 345° North 395 455 23,400 984 Climbing Houston Center
Sun 10:41:24 PM 31.3097 -96.0092 349° North 396 456 24,400 836 Climbing Houston Center
Sun 10:42:25 PM 31.4203 -96.0350 349° North 400 460 25,100 590 Climbing Houston Center
Sun 10:43:26 PM 31.5319 -96.0619 348° North 407 468 25,600 504 Climbing Houston Center
Sun 10:44:24 PM 31.6489 -96.0906 348° North 404 465 26,100 508 Climbing Fort Worth Center
Sun 10:45:24 PM 31.7683 -96.1183 349° North 420 483 26,600 500 Climbing Fort Worth Center
Sun 10:46:24 PM 31.8833 -96.1461 348° North 426 490 27,100 500 Climbing Fort Worth Center
Sun 10:47:24 PM 31.9881 -96.1714 348° North 426 490 27,600 500 Climbing Fort Worth Center
Sun 10:48:24 PM 32.1094 -96.2017 348° North 431 496 28,100 500 Climbing Fort Worth Center
Sun 10:49:24 PM 32.2328 -96.2197 353° North 437 503 28,600 500 Climbing Fort Worth Center
Sun 10:50:24 PM 32.3581 -96.2231 359° North 443 510 29,100 550 Climbing Fort Worth Center
Sun 10:51:24 PM 32.4853 -96.2214 North 443 510 29,700 650 Climbing Fort Worth Center
Sun 10:52:24 PM 32.6106 -96.2222 360° North 448 516 30,400 750 Climbing Fort Worth Center
Sun 10:53:24 PM 32.7358 -96.2256 359° North 443 510 31,200 700 Climbing Fort Worth Center
Sun 10:54:24 PM 32.8569 -96.2264 360° North 438 504 31,800 550 Climbing Fort Worth Center
Sun 10:55:24 PM 32.9781 -96.2272 360° North 438 504 32,300 500 Climbing Fort Worth Center
Sun 10:56:24 PM 33.1014 -96.2281 360° North 438 504 32,800 350 Climbing Fort Worth Center
Sun 10:57:24 PM 33.2222 -96.2289 360° North 438 504 33,000 100 Climbing Fort Worth Center
Sun 10:58:24 PM 33.3475 -96.2322 359° North 438 504 33,000  Level Fort Worth Center
Sun 10:59:24 PM 33.4750 -96.2331 360° North 443 510 33,000  Level Fort Worth Center
Sun 11:00:24 PM 33.6022 -96.2239 North 443 510 33,000  Level Fort Worth Center
Sun 11:01:24 PM 33.7333 -96.2022 North 460 529 33,000  Level Fort Worth Center
Sun 11:02:24 PM 33.8669 -96.1803 North 471 542 33,000  Level Fort Worth Center
Sun 11:03:24 PM 34.0003 -96.1583 North 476 548 33,000  Level Fort Worth Center
Sun 11:04:23 PM 34.1272 -96.1389 North 476 548 33,000  Level Fort Worth Center
Sun 11:05:24 PM 34.2625 -96.1144 North 476 548 33,000  Level Fort Worth Center
Sun 11:06:24 PM 34.3939 -96.0972 North 481 554 33,000  Level Fort Worth Center
Sun 11:07:23 PM 34.5272 -96.0750 North 481 554 33,000  Level Fort Worth Center
Sun 11:08:24 PM 34.6625 -96.0503 North 481 554 33,000  Level Fort Worth Center
Sun 11:09:24 PM 34.7917 -96.0281 North 481 554 33,000 -1,160 Level Fort Worth Center
Sun 11:10:23 PM 34.9228 -96.0081 North 476 548 30,700 -2,650 Descending Fort Worth Center
Sun 11:11:24 PM 35.0539 -95.9856 North 476 548 27,700 -3,000 Descending Fort Worth Center
Sun 11:12:23 PM 35.1789 -95.9633 North 465 535 24,700 -2,591 Descending Fort Worth Center
Sun 11:14:00 PM 35.3428 -95.9306 13° North  Level FlightAware Approximate
Sun 11:15:41 PM 35.5456 -95.8981 13° North 387 445 16,600  Level Kansas City Center
Sun 11:16:41 PM 35.6417 -95.8833 North 359 413 14,600 -2,074 Descending Kansas City Center
Sun 11:17:02 PM 35.6783 -95.8789 North 335 386 13,800 -1,967 Descending Kansas City Center
Sun 11:17:42 PM 35.7333 -95.8672 10° North 340 391 12,600 -1,964 Descending Kansas City Center
Sun 11:17:57 PM 35.7608 -95.8631 North 324 373 12,000 -1,574 Descending Kansas City Center
Sun 11:18:43 PM 35.8197 -95.8522 North 322 371 11,000 -1,545 Descending Kansas City Center
Sun 11:19:03 PM 35.8583 -95.8478 North 301 346 10,300 -1,475 Descending Kansas City Center
Sun 11:19:44 PM 35.9000 -95.8394 North 300 345 9,500 -1,433 Descending Kansas City Center
Sun 11:20:10 PM 35.9408 -95.8319 North 276 318 8,700 -1,377 Descending Kansas City Center
Sun 11:20:45 PM 35.9764 -95.8261 North 283 326 8,100 -1,279 Descending Kansas City Center
Sun 11:21:11 PM 36.0131 -95.8200 North 260 299 7,400 -1,180 Descending Kansas City Center
Sun 11:21:46 PM 36.0458 -95.8147 North 262 302 6,900 -1,000 Descending Kansas City Center
Sun 11:22:11 PM 36.0794 -95.8086 North 231 266 6,400 -984 Descending Kansas City Center
Sun 11:22:47 PM 36.1094 -95.8031 North 239 275 5,900 -1,082 Descending Kansas City Center
Sun 11:23:12 PM 36.1433 -95.7978 North 212 244 5,300 -984 Descending Kansas City Center
Sun 11:23:48 PM 36.1681 -95.7928 North 220 253 4,900 -1,000 Descending Kansas City Center
Sun 11:24:18 PM 36.2075 -95.7867 North 219 252 4,200 -1,000 Descending Kansas City Center
Sun 11:24:48 PM 36.2292 -95.7828 North 218 251 3,900 -984 Descending Kansas City Center
Sun 11:25:19 PM 36.2697 -95.7786 North 226 260 3,200 -984 Descending Kansas City Center
Sun 11:25:49 PM 36.2861 -95.7942 323° Northwest 232 267 2,900 -689 Descending Kansas City Center
Sun 11:26:20 PM 36.2894 -95.8381 275° West 187 215 2,500 -787 Descending Kansas City Center
Sun 11:26:50 PM 36.2817 -95.8650 250° West 186 214 2,100 -778 Descending Kansas City Center
Sun 11:27:14 PM 36.2719 -95.8767 224° Southwest 145 167 1,800 -689 Descending Kansas City Center
Sun 11:27:51 PM 36.2489 -95.8786 184° South 155 178 1,400 -689 Descending Kansas City Center
Sun 11:28:15 PM 36.2344 -95.8817 190° South 115 132 1,100 -689 Descending Kansas City Center
Sun 11:28:52 PM 36.2139 -95.8822 181° South 135 155 700 -649 Descending Kansas City Center

Login

Don't have an account? Register now (free) for customized features, flight alerts, and more!